Time;durP1;ratioP1;P1;durP2;ratioP2;P2;SDS_P1;SDS_P2;PMS_P1;PMS_P2;Temp;Humidity;BMP_temperature;BMP_pressure;BME280_temperature;BME280_humidity;BME280_pressure;Samples;Min_cycle;Max_cycle;Signal;HPM_P1;HPM_P2
2023/03/29 00:00:12;;;;;;;12.93;4.90;;;;;;;;;;5001955;28;20044;-77
2023/03/29 00:02:39;;;;;;;11.13;4.47;;;;;;;;;;4990136;28;20054;-75
2023/03/29 00:05:05;;;;;;;11.38;4.20;;;;;;;;;;5010807;28;20033;-75
2023/03/29 00:07:34;;;;;;;11.25;3.63;;;;;;;;;;5010319;28;20045;-75
2023/03/29 00:10:01;;;;;;;9.10;4.10;;;;;;;;;;5011275;28;20053;-75
2023/03/29 00:12:27;;;;;;;9.73;4.40;;;;;;;;;;5010948;28;20029;-76
2023/03/29 00:14:54;;;;;;;9.40;3.95;;;;;;;;;;5010865;28;20071;-74
2023/03/29 00:17:20;;;;;;;10.73;3.92;;;;;;;;;;5009994;28;20045;-77
2023/03/29 00:19:46;;;;;;;8.98;4.00;;;;;;;;;;5011930;28;20026;-76
2023/03/29 00:22:12;;;;;;;12.95;4.25;;;;;;;;;;4994430;28;20049;-75
2023/03/29 00:24:38;;;;;;;10.95;4.85;;;;;;;;;;5011185;28;20037;-75
2023/03/29 00:27:04;;;;;;;10.35;3.95;;;;;;;;;;5010149;28;20022;-75
2023/03/29 00:29:31;;;;;;;7.55;3.90;;;;;;;;;;4997233;28;20055;-76
2023/03/29 00:31:57;;;;;;;9.90;4.18;;;;;;;;;;5001008;28;20105;-76
2023/03/29 00:34:25;;;;;;;8.48;4.22;;;;;;;;;;5003492;28;20026;-75
2023/03/29 00:36:51;;;;;;;7.65;4.47;;;;;;;;;;4973298;28;20030;-75
2023/03/29 00:39:18;;;;;;;10.25;4.07;;;;;;;;;;4995105;28;20038;-75
2023/03/29 00:41:45;;;;;;;10.38;4.20;;;;;;;;;;5010349;28;20033;-76
2023/03/29 00:44:46;;;;;;;9.82;4.78;;;;;;;;;;5010561;28;20479;-75
2023/03/29 00:47:13;;;;;;;10.98;4.53;;;;;;;;;;5010397;28;20029;-73
2023/03/29 00:49:39;;;;;;;11.55;4.60;;;;;;;;;;5010116;28;20038;-74
2023/03/29 00:52:06;;;;;;;12.00;5.70;;;;;;;;;;5010710;28;20037;-74
2023/03/29 00:54:33;;;;;;;14.40;5.55;;;;;;;;;;5010387;28;20022;-73
2023/03/29 00:57:02;;;;;;;10.57;5.05;;;;;;;;;;5009676;28;20142;-74
2023/03/29 00:59:31;;;;;;;10.25;5.18;;;;;;;;;;5010007;28;20022;-74
2023/03/29 01:02:00;;;;;;;12.93;6.03;;;;;;;;;;5010260;28;20025;-73
2023/03/29 01:04:28;;;;;;;13.02;4.90;;;;;;;;;;5010035;28;20475;-74
2023/03/29 01:07:00;;;;;;;9.48;5.13;;;;;;;;;;5009979;28;20057;-76
2023/03/29 01:09:29;;;;;;;9.70;4.40;;;;;;;;;;5009816;28;20020;-74
2023/03/29 01:11:56;;;;;;;9.20;4.65;;;;;;;;;;5010276;28;20030;-75
2023/03/29 01:14:27;;;;;;;9.45;4.93;;;;;;;;;;5009592;28;20057;-74
2023/03/29 01:16:54;;;;;;;12.50;5.20;;;;;;;;;;5010061;28;20030;-75
2023/03/29 01:19:23;;;;;;;12.25;5.40;;;;;;;;;;5009073;28;20036;-75
2023/03/29 01:21:51;;;;;;;16.70;5.18;;;;;;;;;;4992252;28;20364;-75
2023/03/29 01:24:20;;;;;;;11.52;4.50;;;;;;;;;;5009859;28;20113;-75
2023/03/29 01:27:02;;;;;;;11.98;4.35;;;;;;;;;;5009971;28;20091;-75
2023/03/29 01:29:40;;;;;;;8.65;4.32;;;;;;;;;;4996830;28;20075;-75
2023/03/29 01:32:25;;;;;;;8.68;4.20;;;;;;;;;;5002155;28;20033;-75
2023/03/29 01:35:09;;;;;;;10.45;4.18;;;;;;;;;;4999092;28;20083;-76
2023/03/29 01:37:46;;;;;;;12.27;5.50;;;;;;;;;;4997588;28;20112;-75
2023/03/29 01:40:12;;;;;;;11.95;4.25;;;;;;;;;;5010598;28;20132;-75
2023/03/29 01:42:48;;;;;;;11.13;3.92;;;;;;;;;;5009935;28;20022;-76
2023/03/29 01:45:14;;;;;;;7.57;3.63;;;;;;;;;;5009911;28;20033;-75
2023/03/29 01:47:55;;;;;;;8.13;3.58;;;;;;;;;;5008631;28;20034;-74
2023/03/29 01:50:21;;;;;;;;;;;;;;;;;;5009754;28;20514;-75
2023/03/29 01:52:50;;;;;;;8.98;3.15;;;;;;;;;;5009502;28;19909;-75
2023/03/29 01:55:19;;;;;;;7.75;3.60;;;;;;;;;;5009212;28;20037;-74
2023/03/29 01:57:46;;;;;;;7.80;3.53;;;;;;;;;;5008711;28;20381;-76
2023/03/29 02:00:16;;;;;;;7.45;3.15;;;;;;;;;;5009600;28;20030;-76
2023/03/29 02:02:44;;;;;;;9.88;4.00;;;;;;;;;;5009308;28;20033;-78
2023/03/29 02:05:11;;;;;;;10.05;4.20;;;;;;;;;;5009491;28;20395;-75
2023/03/29 02:07:39;;;;;;;5.38;3.22;;;;;;;;;;5008450;28;20030;-75
2023/03/29 02:10:06;;;;;;;8.70;3.53;;;;;;;;;;4997814;28;20552;-75
2023/03/29 02:12:32;;;;;;;7.57;3.00;;;;;;;;;;5004777;28;20030;-76
2023/03/29 02:15:05;;;;;;;10.10;3.72;;;;;;;;;;4990340;28;20023;-75
2023/03/29 02:17:32;;;;;;;9.32;3.88;;;;;;;;;;4995235;28;20018;-74
2023/03/29 02:20:03;;;;;;;9.38;3.58;;;;;;;;;;4991513;28;20036;-75
2023/03/29 02:22:41;;;;;;;7.10;3.83;;;;;;;;;;4991315;28;20033;-75
2023/03/29 02:25:08;;;;;;;7.93;3.28;;;;;;;;;;5008106;28;20018;-74
2023/03/29 02:27:36;;;;;;;11.15;3.75;;;;;;;;;;5007736;28;20026;-74
2023/03/29 02:30:02;;;;;;;9.40;3.63;;;;;;;;;;4991356;28;20022;-75
2023/03/29 02:32:35;;;;;;;7.47;3.50;;;;;;;;;;5003592;28;20030;-75
2023/03/29 02:35:05;;;;;;;7.28;3.53;;;;;;;;;;4996265;28;20033;-75
2023/03/29 02:37:33;;;;;;;5.43;2.55;;;;;;;;;;4994909;28;20026;-75
2023/03/29 02:40:00;;;;;;;12.18;3.65;;;;;;;;;;5008881;28;20538;-76
2023/03/29 02:42:26;;;;;;;8.50;3.50;;;;;;;;;;5003456;28;20038;-74
2023/03/29 02:44:55;;;;;;;9.35;3.63;;;;;;;;;;4979155;28;20037;-75
2023/03/29 02:47:42;;;;;;;10.52;3.88;;;;;;;;;;4993076;28;20585;-76
2023/03/29 02:50:08;;;;;;;8.73;3.92;;;;;;;;;;5008407;28;20029;-75
2023/03/29 02:52:38;;;;;;;8.93;3.95;;;;;;;;;;4999753;28;20034;-77
2023/03/29 02:55:07;;;;;;;7.65;3.53;;;;;;;;;;4988734;28;20385;-74
2023/03/29 02:57:36;;;;;;;9.65;3.95;;;;;;;;;;4995130;28;20376;-73
2023/03/29 03:00:08;;;;;;;7.07;3.65;;;;;;;;;;5008229;28;20022;-75
2023/03/29 03:02:34;;;;;;;10.38;4.07;;;;;;;;;;4988711;28;20026;-75
2023/03/29 03:05:00;;;;;;;9.30;3.70;;;;;;;;;;5007389;28;20419;-76
2023/03/29 03:07:27;;;;;;;8.20;3.47;;;;;;;;;;5007384;28;20026;-76
2023/03/29 03:09:53;;;;;;;7.45;4.20;;;;;;;;;;5008396;28;20097;-75
2023/03/29 03:12:19;;;;;;;7.82;3.42;;;;;;;;;;5008276;28;20071;-75
2023/03/29 03:14:45;;;;;;;9.20;4.53;;;;;;;;;;4990637;28;20030;-74
2023/03/29 03:17:11;;;;;;;7.97;3.63;;;;;;;;;;5006240;28;20280;-76
2023/03/29 03:19:37;;;;;;;9.45;3.85;;;;;;;;;;4988768;28;20118;-75
2023/03/29 03:22:04;;;;;;;8.70;3.72;;;;;;;;;;4999729;28;20112;-75
2023/03/29 03:24:31;;;;;;;11.55;4.15;;;;;;;;;;5014281;28;20022;-77
2023/03/29 03:26:57;;;;;;;9.85;4.10;;;;;;;;;;5025154;28;20098;-73
2023/03/29 03:29:24;;;;;;;9.57;4.13;;;;;;;;;;5022611;28;20018;-76
2023/03/29 03:31:51;;;;;;;10.45;4.38;;;;;;;;;;5016535;28;20033;-74
2023/03/29 03:34:18;;;;;;;6.53;3.30;;;;;;;;;;5001914;28;20021;-76
2023/03/29 03:36:46;;;;;;;8.98;3.40;;;;;;;;;;4990677;28;20044;-75
2023/03/29 03:39:12;;;;;;;8.18;4.10;;;;;;;;;;4995066;28;20022;-75
2023/03/29 03:41:38;;;;;;;15.20;5.80;;;;;;;;;;5011660;28;20499;-75
2023/03/29 03:44:04;;;;;;;10.18;4.20;;;;;;;;;;5011329;28;20549;-75
2023/03/29 03:46:30;;;;;;;7.85;4.80;;;;;;;;;;5011183;28;20029;-75
2023/03/29 03:48:58;;;;;;;16.17;4.95;;;;;;;;;;4992905;28;20057;-75
2023/03/29 03:51:24;;;;;;;7.45;4.53;;;;;;;;;;5009572;28;20511;-75
2023/03/29 03:53:50;;;;;;;10.90;4.53;;;;;;;;;;4991857;28;20022;-76
2023/03/29 03:56:16;;;;;;;13.13;4.68;;;;;;;;;;5004368;28;20071;-76
2023/03/29 03:58:42;;;;;;;7.07;3.90;;;;;;;;;;5010250;28;20049;-72
2023/03/29 04:01:08;;;;;;;14.40;4.88;;;;;;;;;;5010458;28;20053;-74
2023/03/29 04:03:36;;;;;;;11.77;4.30;;;;;;;;;;5011223;28;20022;-75
2023/03/29 04:06:03;;;;;;;9.95;4.57;;;;;;;;;;5011449;28;20401;-73
2023/03/29 04:08:29;;;;;;;12.95;4.75;;;;;;;;;;5010367;28;20033;-73
2023/03/29 04:10:57;;;;;;;11.48;4.72;;;;;;;;;;5010646;28;20029;-72
2023/03/29 04:13:23;;;;;;;13.02;5.20;;;;;;;;;;5010918;28;20153;-74
2023/03/29 04:15:52;;;;;;;10.10;4.93;;;;;;;;;;5010790;28;20057;-73
2023/03/29 04:18:19;;;;;;;12.25;4.60;;;;;;;;;;5010196;28;20026;-74
2023/03/29 04:20:46;;;;;;;14.70;5.13;;;;;;;;;;5011169;28;20034;-76
2023/03/29 04:23:12;;;;;;;11.65;6.15;;;;;;;;;;5072505;28;20022;-77
2023/03/29 04:25:38;;;;;;;7.53;4.25;;;;;;;;;;4998777;28;20391;-74
2023/03/29 04:28:05;;;;;;;13.32;4.60;;;;;;;;;;5009767;28;20026;-75
2023/03/29 04:30:31;;;;;;;13.40;5.25;;;;;;;;;;4984744;28;20019;-74
2023/03/29 04:32:57;;;;;;;8.30;4.75;;;;;;;;;;5007264;28;20500;-76
2023/03/29 04:35:23;;;;;;;12.18;5.28;;;;;;;;;;4988473;28;20117;-76
2023/03/29 04:37:50;;;;;;;15.38;5.35;;;;;;;;;;5001267;28;20459;-76
2023/03/29 04:40:18;;;;;;;12.10;5.07;;;;;;;;;;5003829;28;20041;-74
2023/03/29 04:42:44;;;;;;;14.85;5.60;;;;;;;;;;5010374;28;20082;-75
2023/03/29 04:45:12;;;;;;;10.38;5.43;;;;;;;;;;5010096;28;20024;-76
2023/03/29 04:47:39;;;;;;;18.30;5.72;;;;;;;;;;5001470;28;20117;-76
2023/03/29 04:50:07;;;;;;;14.35;6.20;;;;;;;;;;5001996;28;20026;-77
2023/03/29 04:52:33;;;;;;;10.15;5.38;;;;;;;;;;4999492;28;20050;-76
2023/03/29 04:55:00;;;;;;;9.68;5.07;;;;;;;;;;4990547;28;20058;-77
2023/03/29 04:57:26;;;;;;;10.43;5.78;;;;;;;;;;4996051;28;20033;-75
2023/03/29 04:59:52;;;;;;;17.20;5.65;;;;;;;;;;5010422;28;20118;-75
2023/03/29 05:02:18;;;;;;;16.13;6.15;;;;;;;;;;5010312;28;20034;-75
2023/03/29 05:04:44;;;;;;;13.85;6.07;;;;;;;;;;5010051;28;20026;-75
2023/03/29 05:07:11;;;;;;;19.17;5.47;;;;;;;;;;5009238;28;20029;-73
2023/03/29 05:09:37;;;;;;;13.65;5.47;;;;;;;;;;5009945;28;20091;-73
2023/03/29 05:12:04;;;;;;;12.13;5.68;;;;;;;;;;5009789;28;20034;-75
2023/03/29 05:14:30;;;;;;;11.35;5.63;;;;;;;;;;5009808;28;20026;-73
2023/03/29 05:16:56;;;;;;;14.70;6.13;;;;;;;;;;5009962;28;20464;-76
2023/03/29 05:19:22;;;;;;;13.85;6.30;;;;;;;;;;5009341;28;20026;-74
2023/03/29 05:21:49;;;;;;;13.18;6.05;;;;;;;;;;5009894;28;20105;-74
2023/03/29 05:24:16;;;;;;;13.35;5.50;;;;;;;;;;5009100;28;20050;-74
2023/03/29 05:26:43;;;;;;;12.68;5.90;;;;;;;;;;5009801;28;20025;-75
2023/03/29 05:29:11;;;;;;;16.90;6.13;;;;;;;;;;5008877;28;20072;-75
2023/03/29 05:31:37;;;;;;;10.02;5.53;;;;;;;;;;5009915;28;20109;-74
2023/03/29 05:34:04;;;;;;;15.02;6.40;;;;;;;;;;5006320;28;20068;-74
2023/03/29 05:36:31;;;;;;;15.07;5.70;;;;;;;;;;4989868;28;20029;-75
2023/03/29 05:38:58;;;;;;;15.27;5.47;;;;;;;;;;5007254;28;20091;-75
2023/03/29 05:41:24;;;;;;;14.68;6.25;;;;;;;;;;5009557;28;20169;-75
2023/03/29 05:43:51;;;;;;;10.70;5.97;;;;;;;;;;5010503;28;20118;-75
2023/03/29 05:46:17;;;;;;;13.45;5.53;;;;;;;;;;5011430;28;20052;-75
2023/03/29 05:48:43;;;;;;;12.70;6.07;;;;;;;;;;4992987;28;20097;-76
2023/03/29 05:51:09;;;;;;;18.92;6.57;;;;;;;;;;4997156;28;20026;-76
2023/03/29 05:53:35;;;;;;;13.02;5.15;;;;;;;;;;5009993;28;20017;-75
2023/03/29 05:56:02;;;;;;;9.90;5.43;;;;;;;;;;5010803;28;20426;-76
2023/03/29 05:58:29;;;;;;;18.98;6.32;;;;;;;;;;4994866;28;20046;-77
2023/03/29 06:00:55;;;;;;;14.90;5.57;;;;;;;;;;5007026;28;20034;-76
2023/03/29 06:03:24;;;;;;;17.48;6.57;;;;;;;;;;5009266;28;20022;-75
2023/03/29 06:05:55;;;;;;;11.73;5.50;;;;;;;;;;5009058;28;20105;-76
2023/03/29 06:08:22;;;;;;;14.13;5.60;;;;;;;;;;5008762;28;20482;-76
2023/03/29 06:10:48;;;;;;;9.85;5.05;;;;;;;;;;4991455;28;20064;-76
2023/03/29 06:13:14;;;;;;;11.82;5.13;;;;;;;;;;5009178;28;20484;-75
2023/03/29 06:15:40;;;;;;;11.68;5.47;;;;;;;;;;5001277;28;20046;-78
2023/03/29 06:18:06;;;;;;;11.38;5.50;;;;;;;;;;5000396;28;20514;-76
2023/03/29 06:20:32;;;;;;;12.25;5.18;;;;;;;;;;5008792;28;20029;-75
2023/03/29 06:22:58;;;;;;;15.90;5.03;;;;;;;;;;5009173;28;20026;-76
2023/03/29 06:25:24;;;;;;;11.65;5.45;;;;;;;;;;5009011;28;20032;-75
2023/03/29 06:27:51;;;;;;;13.25;5.50;;;;;;;;;;5008300;28;20075;-76
2023/03/29 06:30:18;;;;;;;14.00;5.38;;;;;;;;;;5008810;28;20467;-75
2023/03/29 06:32:44;;;;;;;15.13;5.47;;;;;;;;;;5009217;28;20025;-75
2023/03/29 06:35:10;;;;;;;13.32;5.43;;;;;;;;;;4998605;28;20022;-76
2023/03/29 06:37:38;;;;;;;10.48;5.45;;;;;;;;;;4990568;28;20033;-79
2023/03/29 06:40:05;;;;;;;14.10;5.18;;;;;;;;;;5008815;28;20026;-75
2023/03/29 06:42:31;;;;;;;16.17;5.20;;;;;;;;;;5008698;28;20495;-75
2023/03/29 06:44:58;;;;;;;9.60;4.43;;;;;;;;;;4991014;28;20083;-77
2023/03/29 06:47:29;;;;;;;13.25;4.72;;;;;;;;;;4990132;28;20034;-77
2023/03/29 06:49:55;;;;;;;10.65;4.05;;;;;;;;;;4991168;28;20570;-75
2023/03/29 06:52:21;;;;;;;10.88;4.70;;;;;;;;;;4999488;28;20018;-75
2023/03/29 06:54:48;;;;;;;15.90;5.10;;;;;;;;;;4971715;28;20027;-76
2023/03/29 06:57:14;;;;;;;9.07;4.25;;;;;;;;;;4992489;28;20053;-77
2023/03/29 06:59:40;;;;;;;11.45;5.00;;;;;;;;;;5009155;28;20034;-76
2023/03/29 07:02:06;;;;;;;13.18;5.18;;;;;;;;;;5008445;28;20026;-75
2023/03/29 07:04:33;;;;;;;16.85;4.97;;;;;;;;;;5008443;28;20037;-76
2023/03/29 07:07:04;;;;;;;13.40;5.25;;;;;;;;;;5008478;28;20113;-73
2023/03/29 07:09:31;;;;;;;15.68;6.53;;;;;;;;;;5009395;28;20033;-75
2023/03/29 07:11:57;;;;;;;13.57;5.07;;;;;;;;;;4990504;28;20076;-75
2023/03/29 07:14:30;;;;;;;17.05;5.85;;;;;;;;;;5008461;28;20479;-75
2023/03/29 07:16:57;;;;;;;10.95;4.97;;;;;;;;;;4990759;28;20030;-75
2023/03/29 07:19:26;;;;;;;12.75;5.20;;;;;;;;;;5007776;28;20029;-75
2023/03/29 07:21:52;;;;;;;14.95;5.57;;;;;;;;;;4988009;28;20029;-76
2023/03/29 07:24:19;;;;;;;19.52;5.32;;;;;;;;;;4985811;28;20037;-76
2023/03/29 07:26:45;;;;;;;13.90;5.70;;;;;;;;;;5001625;28;20106;-76
2023/03/29 07:29:12;;;;;;;21.10;5.25;;;;;;;;;;4990123;28;20388;-76
2023/03/29 07:31:39;;;;;;;10.30;4.55;;;;;;;;;;5006300;28;20042;-75
2023/03/29 07:34:09;;;;;;;11.57;4.70;;;;;;;;;;5001611;28;20026;-72
2023/03/29 07:36:35;;;;;;;11.38;4.65;;;;;;;;;;4969494;28;20026;-75
2023/03/29 07:39:02;;;;;;;11.75;5.38;;;;;;;;;;5004925;28;21656;-76
2023/03/29 07:41:28;;;;;;;10.10;5.28;;;;;;;;;;5006217;28;20025;-76
2023/03/29 07:43:54;;;;;;;10.82;4.95;;;;;;;;;;5007026;28;20022;-75
2023/03/29 07:46:20;;;;;;;9.57;4.53;;;;;;;;;;4990365;28;20030;-73
2023/03/29 07:48:46;;;;;;;11.98;5.88;;;;;;;;;;5007028;28;20026;-76
2023/03/29 07:51:12;;;;;;;13.82;4.55;;;;;;;;;;5007404;28;20067;-72
2023/03/29 07:53:39;;;;;;;13.10;5.40;;;;;;;;;;4990250;28;20026;-75
2023/03/29 07:56:05;;;;;;;11.32;4.47;;;;;;;;;;5007406;28;20050;-76
2023/03/29 07:58:31;;;;;;;7.70;4.13;;;;;;;;;;5006760;28;20022;-76
2023/03/29 08:01:01;;;;;;;16.40;4.60;;;;;;;;;;5007548;28;20417;-75
2023/03/29 08:03:27;;;;;;;11.95;4.70;;;;;;;;;;4988804;28;20026;-74
2023/03/29 08:05:53;;;;;;;15.55;5.53;;;;;;;;;;5005903;28;20101;-75
2023/03/29 08:08:19;;;;;;;11.60;3.95;;;;;;;;;;4984426;28;20053;-74
2023/03/29 08:10:45;;;;;;;13.73;4.60;;;;;;;;;;5005550;28;20462;-75
2023/03/29 08:13:12;;;;;;;9.43;3.85;;;;;;;;;;4989649;28;20065;-75
2023/03/29 08:15:39;;;;;;;11.60;4.28;;;;;;;;;;5005793;28;20028;-76
2023/03/29 08:18:06;;;;;;;11.70;4.10;;;;;;;;;;5004653;28;20113;-74
2023/03/29 08:20:32;;;;;;;12.15;4.60;;;;;;;;;;5005614;28;20033;-74
2023/03/29 08:22:58;;;;;;;8.00;4.18;;;;;;;;;;5006194;28;20526;-75
2023/03/29 08:25:24;;;;;;;10.85;4.28;;;;;;;;;;5008810;28;20710;-75
2023/03/29 08:27:50;;;;;;;8.45;4.07;;;;;;;;;;4992656;28;20030;-76
2023/03/29 08:30:17;;;;;;;8.55;4.13;;;;;;;;;;5010963;28;20537;-74
2023/03/29 08:32:43;;;;;;;7.75;3.88;;;;;;;;;;5011010;28;20022;-74
2023/03/29 08:35:09;;;;;;;8.60;3.60;;;;;;;;;;4979863;28;20105;-76
2023/03/29 08:37:36;;;;;;;10.10;3.75;;;;;;;;;;4998352;28;20022;-75
2023/03/29 08:40:02;;;;;;;8.32;4.72;;;;;;;;;;5010642;28;20026;-74
2023/03/29 08:42:55;;;;;;;15.02;5.28;;;;;;;;;;4999696;28;20033;-74
2023/03/29 08:45:21;;;;;;;11.07;4.80;;;;;;;;;;4991551;28;20504;-74
2023/03/29 08:48:11;;;;;;;11.07;4.40;;;;;;;;;;4990202;28;20076;-75
2023/03/29 08:50:42;;;;;;;9.48;4.97;;;;;;;;;;4996402;28;20563;-75
2023/03/29 08:53:11;;;;;;;10.30;4.05;;;;;;;;;;4991537;28;20011;-75
2023/03/29 08:55:40;;;;;;;11.88;4.65;;;;;;;;;;4989363;28;20027;-76
2023/03/29 08:58:07;;;;;;;14.52;5.10;;;;;;;;;;4989589;28;20026;-75
2023/03/29 09:00:36;;;;;;;6.68;4.05;;;;;;;;;;4988301;28;20484;-76
2023/03/29 09:03:02;;;;;;;10.20;4.85;;;;;;;;;;4988428;28;20099;-75
2023/03/29 09:05:28;;;;;;;9.48;4.70;;;;;;;;;;4986740;28;20054;-74
2023/03/29 09:07:54;;;;;;;7.40;4.30;;;;;;;;;;5007537;28;20058;-74
2023/03/29 09:10:22;;;;;;;14.30;4.95;;;;;;;;;;4995736;28;20027;-75
2023/03/29 09:13:00;;;;;;;9.32;4.30;;;;;;;;;;5006371;28;20026;-74
2023/03/29 09:15:30;;;;;;;11.25;4.97;;;;;;;;;;4997021;28;20050;-73
2023/03/29 09:18:01;;;;;;;9.10;4.43;;;;;;;;;;5006665;28;20506;-73
2023/03/29 09:20:49;;;;;;;10.55;4.78;;;;;;;;;;4983104;28;20113;-75
2023/03/29 09:23:21;;;;;;;8.13;4.35;;;;;;;;;;4998826;28;20024;-76
2023/03/29 09:25:55;;;;;;;15.30;5.07;;;;;;;;;;5009633;28;20032;-74
2023/03/29 09:28:25;;;;;;;6.72;4.43;;;;;;;;;;5009219;28;20026;-74
2023/03/29 09:30:58;;;;;;;7.97;4.32;;;;;;;;;;4990734;28;20499;-76
2023/03/29 09:33:41;;;;;;;9.50;4.50;;;;;;;;;;4989791;28;20109;-73
2023/03/29 09:36:30;;;;;;;6.13;4.53;;;;;;;;;;4989973;28;20097;-75
2023/03/29 09:38:56;;;;;;;7.80;4.05;;;;;;;;;;4989591;28;20869;-75
2023/03/29 09:41:33;;;;;;;9.48;4.40;;;;;;;;;;4992401;28;20417;-75
2023/03/29 09:44:01;;;;;;;11.15;4.50;;;;;;;;;;5000390;28;20605;-74
2023/03/29 09:46:30;;;;;;;7.47;4.53;;;;;;;;;;5009029;28;20032;-75
2023/03/29 09:48:56;;;;;;;10.20;4.07;;;;;;;;;;5008216;28;20114;-74
2023/03/29 09:51:25;;;;;;;7.25;5.05;;;;;;;;;;5009140;28;20539;-73
2023/03/29 09:53:51;;;;;;;6.75;3.92;;;;;;;;;;5008416;28;20045;-75
2023/03/29 09:56:17;;;;;;;11.13;5.00;;;;;;;;;;4991358;28;20022;-74
2023/03/29 09:58:45;;;;;;;9.65;4.60;;;;;;;;;;4990964;28;20117;-75
2023/03/29 10:01:14;;;;;;;8.40;4.22;;;;;;;;;;4993506;28;20041;-74
2023/03/29 10:03:40;;;;;;;6.78;4.05;;;;;;;;;;4991791;28;20038;-75
2023/03/29 10:06:07;;;;;;;9.35;4.25;;;;;;;;;;5009303;28;20034;-76
2023/03/29 10:08:33;;;;;;;11.82;4.95;;;;;;;;;;5008141;28;20514;-76
2023/03/29 10:11:00;;;;;;;11.73;4.20;;;;;;;;;;5008894;28;20475;-74
2023/03/29 10:13:31;;;;;;;10.13;4.35;;;;;;;;;;5009348;28;20032;-75
2023/03/29 10:16:02;;;;;;;7.93;4.20;;;;;;;;;;4991313;28;20167;-74
2023/03/29 10:18:29;;;;;;;9.68;4.43;;;;;;;;;;5008291;28;20025;-75
2023/03/29 10:20:59;;;;;;;10.43;4.22;;;;;;;;;;5009050;28;20109;-74
2023/03/29 10:23:29;;;;;;;6.18;4.20;;;;;;;;;;5009248;28;20026;-75
2023/03/29 10:25:55;;;;;;;6.47;4.03;;;;;;;;;;5009057;28;20037;-75
2023/03/29 10:28:22;;;;;;;6.22;3.05;;;;;;;;;;5007781;28;20423;-74
2023/03/29 10:30:52;;;;;;;4.63;3.08;;;;;;;;;;5007494;28;20022;-76
2023/03/29 10:33:20;;;;;;;5.72;3.17;;;;;;;;;;4994397;28;20022;-74
2023/03/29 10:35:47;;;;;;;6.38;3.65;;;;;;;;;;4990443;28;20072;-74
2023/03/29 10:38:16;;;;;;;3.45;2.65;;;;;;;;;;5001859;28;20029;-73
2023/03/29 10:40:44;;;;;;;7.60;2.92;;;;;;;;;;5008387;28;20026;-75
2023/03/29 10:43:13;;;;;;;7.07;2.83;;;;;;;;;;5008484;28;20018;-73
2023/03/29 10:45:41;;;;;;;3.53;2.80;;;;;;;;;;5007778;28;20412;-74
2023/03/29 10:48:11;;;;;;;4.25;2.72;;;;;;;;;;5007744;28;20425;-74
2023/03/29 10:50:37;;;;;;;6.63;3.10;;;;;;;;;;5008493;28;20075;-75
2023/03/29 10:53:09;;;;;;;3.40;2.55;;;;;;;;;;5008389;28;20033;-74
2023/03/29 10:55:39;;;;;;;4.65;3.00;;;;;;;;;;5008426;28;20373;-74
2023/03/29 10:58:22;;;;;;;4.95;2.95;;;;;;;;;;4978167;28;20030;-74
2023/03/29 11:00:51;;;;;;;3.05;2.72;;;;;;;;;;5005725;28;20041;-74
2023/03/29 11:03:33;;;;;;;5.97;2.95;;;;;;;;;;5008475;28;20033;-74
2023/03/29 11:06:00;;;;;;;4.47;2.72;;;;;;;;;;5008064;28;20022;-74
2023/03/29 11:08:45;;;;;;;4.85;3.03;;;;;;;;;;5007442;28;20030;-76
2023/03/29 11:11:17;;;;;;;2.92;2.65;;;;;;;;;;5008129;28;20071;-72
2023/03/29 11:13:55;;;;;;;6.57;3.20;;;;;;;;;;5008411;28;20414;-76
2023/03/29 11:16:24;;;;;;;4.88;3.10;;;;;;;;;;5008026;28;20022;-75
2023/03/29 11:19:09;;;;;;;5.70;3.08;;;;;;;;;;5007267;28;20034;-74
2023/03/29 11:21:41;;;;;;;6.53;2.67;;;;;;;;;;5008164;28;20025;-75
2023/03/29 11:24:26;;;;;;;4.50;3.00;;;;;;;;;;5008108;28;20034;-74
2023/03/29 11:27:24;;;;;;;4.30;2.78;;;;;;;;;;5007900;28;20030;-75
2023/03/29 11:30:05;;;;;;;3.65;2.75;;;;;;;;;;5008088;28;20045;-75
2023/03/29 11:32:58;;;;;;;4.67;2.80;;;;;;;;;;5009589;28;20026;-75
2023/03/29 11:35:42;;;;;;;5.75;2.55;;;;;;;;;;5008299;28;20129;-75
2023/03/29 11:38:23;;;;;;;8.10;3.30;;;;;;;;;;5007670;28;20458;-76
2023/03/29 11:40:55;;;;;;;6.60;3.15;;;;;;;;;;5007317;28;20091;-73
2023/03/29 11:43:25;;;;;;;4.75;2.90;;;;;;;;;;5006508;28;20025;-76
2023/03/29 11:45:56;;;;;;;6.20;3.13;;;;;;;;;;4980834;28;20032;-74
2023/03/29 11:48:25;;;;;;;5.88;3.28;;;;;;;;;;5001504;28;20523;-76
2023/03/29 11:51:10;;;;;;;6.15;3.15;;;;;;;;;;5006757;28;20033;-76
2023/03/29 11:53:42;;;;;;;5.85;3.40;;;;;;;;;;5007439;28;20030;-76
2023/03/29 11:56:11;;;;;;;4.88;3.35;;;;;;;;;;4990650;28;20029;-76
2023/03/29 11:58:39;;;;;;;4.32;3.20;;;;;;;;;;5010397;28;20102;-75
2023/03/29 12:01:31;;;;;;;7.78;5.68;;;;;;;;;;5009829;28;20041;-76
2023/03/29 12:04:05;;;;;;;7.63;4.18;;;;;;;;;;5009666;28;20037;-75
2023/03/29 12:06:31;;;;;;;9.75;4.85;;;;;;;;;;5010019;28;20037;-76
2023/03/29 12:09:03;;;;;;;6.82;3.08;;;;;;;;;;4991649;28;20300;-76
2023/03/29 12:11:48;;;;;;;4.32;2.97;;;;;;;;;;5009601;28;20026;-75
2023/03/29 12:14:20;;;;;;;3.58;2.63;;;;;;;;;;5009585;28;20014;-75
2023/03/29 12:16:48;;;;;;;3.72;2.78;;;;;;;;;;5010369;28;20014;-74
2023/03/29 12:19:24;;;;;;;4.10;2.72;;;;;;;;;;5010633;28;20108;-76
2023/03/29 12:21:53;;;;;;;3.10;2.60;;;;;;;;;;5011284;28;20034;-75
2023/03/29 12:24:19;;;;;;;5.25;2.65;;;;;;;;;;5011470;28;20034;-76
2023/03/29 12:27:01;;;;;;;10.15;6.53;;;;;;;;;;5011348;28;20041;-76
2023/03/29 12:29:40;;;;;;;10.85;6.95;;;;;;;;;;4993240;28;20763;-75
2023/03/29 12:32:25;;;;;;;10.90;5.80;;;;;;;;;;5011082;28;20041;-76
2023/03/29 12:34:51;;;;;;;7.55;5.20;;;;;;;;;;5011213;28;20022;-77
2023/03/29 12:37:17;;;;;;;9.25;7.13;;;;;;;;;;5010212;28;20036;-76
2023/03/29 12:39:43;;;;;;;9.98;6.90;;;;;;;;;;5010868;28;20755;-75
2023/03/29 12:42:17;;;;;;;10.95;8.02;;;;;;;;;;5010845;28;20053;-75
2023/03/29 12:44:45;;;;;;;11.05;8.18;;;;;;;;;;5010847;28;20024;-75
2023/03/29 12:47:17;;;;;;;11.02;8.63;;;;;;;;;;4992582;28;20022;-76
2023/03/29 12:49:45;;;;;;;13.43;9.15;;;;;;;;;;5010901;28;20125;-75
2023/03/29 12:52:22;;;;;;;13.55;9.05;;;;;;;;;;5009647;28;20022;-75
2023/03/29 12:54:55;;;;;;;12.75;8.30;;;;;;;;;;5003522;28;20026;-75
2023/03/29 12:57:26;;;;;;;15.95;8.75;;;;;;;;;;5007558;28;20121;-75
2023/03/29 12:59:52;;;;;;;13.35;8.57;;;;;;;;;;5010706;28;20057;-74
2023/03/29 13:02:18;;;;;;;11.02;8.27;;;;;;;;;;5010331;28;20048;-74
2023/03/29 13:04:52;;;;;;;16.98;10.13;;;;;;;;;;5004038;28;20102;-74
2023/03/29 13:07:21;;;;;;;20.33;9.52;;;;;;;;;;4990421;28;20546;-74
2023/03/29 13:09:51;;;;;;;14.65;9.38;;;;;;;;;;4995385;28;20488;-72
2023/03/29 13:12:18;;;;;;;13.45;9.80;;;;;;;;;;5010517;28;20034;-74
2023/03/29 13:14:45;;;;;;;15.05;9.93;;;;;;;;;;4993151;28;20026;-74
2023/03/29 13:17:20;;;;;;;15.25;10.57;;;;;;;;;;5009277;28;20022;-75
2023/03/29 13:19:46;;;;;;;16.60;10.93;;;;;;;;;;5010317;28;20014;-75
2023/03/29 13:22:35;;;;;;;17.98;10.73;;;;;;;;;;5000451;28;20022;-76
2023/03/29 13:25:10;;;;;;;14.45;9.85;;;;;;;;;;4990908;28;20027;-75
2023/03/29 13:27:42;;;;;;;15.80;10.77;;;;;;;;;;4983247;28;20404;-77
2023/03/29 13:30:11;;;;;;;14.25;11.07;;;;;;;;;;5010804;28;20018;-76
2023/03/29 13:32:47;;;;;;;16.00;10.52;;;;;;;;;;5011351;28;20113;-72
2023/03/29 13:35:22;;;;;;;17.33;11.00;;;;;;;;;;5008946;28;20086;-76
2023/03/29 13:38:04;;;;;;;19.77;11.43;;;;;;;;;;5008015;28;20087;-76
2023/03/29 13:40:30;;;;;;;17.30;11.25;;;;;;;;;;5008774;28;20029;-74
2023/03/29 13:43:19;;;;;;;15.85;11.25;;;;;;;;;;5009859;28;20415;-74
2023/03/29 13:45:51;;;;;;;19.55;11.20;;;;;;;;;;4970412;28;20461;-75
2023/03/29 13:48:21;;;;;;;22.08;11.25;;;;;;;;;;5008699;28;20054;-76
2023/03/29 13:50:56;;;;;;;16.52;11.23;;;;;;;;;;5011086;28;20055;-77
2023/03/29 13:53:48;;;;;;;18.45;12.15;;;;;;;;;;4994807;28;20018;-75
2023/03/29 13:56:19;;;;;;;20.00;12.02;;;;;;;;;;4992834;28;20061;-75
2023/03/29 13:58:47;;;;;;;16.55;10.88;;;;;;;;;;5022806;28;20036;-75
2023/03/29 14:01:35;;;;;;;17.38;10.45;;;;;;;;;;5025214;28;20066;-76
2023/03/29 14:04:04;;;;;;;16.25;11.02;;;;;;;;;;4993349;28;20026;-75
2023/03/29 14:06:31;;;;;;;15.55;11.00;;;;;;;;;;5006334;28;20038;-75
2023/03/29 14:08:59;;;;;;;14.50;10.35;;;;;;;;;;4990500;28;20034;-76
2023/03/29 14:11:26;;;;;;;17.17;11.18;;;;;;;;;;4992854;28;20041;-74
2023/03/29 14:13:56;;;;;;;18.17;11.70;;;;;;;;;;5009745;28;20094;-75
2023/03/29 14:16:28;;;;;;;16.45;10.80;;;;;;;;;;5010423;28;20022;-77
2023/03/29 14:18:57;;;;;;;15.77;10.65;;;;;;;;;;5010120;28;20101;-76
2023/03/29 14:21:24;;;;;;;14.50;9.73;;;;;;;;;;5008844;28;20026;-76
2023/03/29 14:23:54;;;;;;;14.75;9.93;;;;;;;;;;4989905;28;20538;-73
2023/03/29 14:26:21;;;;;;;15.40;8.45;;;;;;;;;;4990123;28;20480;-76
2023/03/29 14:28:52;;;;;;;10.98;7.05;;;;;;;;;;4989439;28;20096;-76
2023/03/29 14:31:18;;;;;;;15.87;9.47;;;;;;;;;;4989729;28;20194;-75
2023/03/29 14:33:44;;;;;;;15.00;8.43;;;;;;;;;;4989662;28;20253;-76
2023/03/29 14:36:13;;;;;;;12.10;7.07;;;;;;;;;;4972278;28;20167;-74
2023/03/29 14:38:39;;;;;;;10.88;6.32;;;;;;;;;;4989023;28;20045;-76
2023/03/29 14:41:06;;;;;;;11.18;7.55;;;;;;;;;;4989554;28;20054;-76
2023/03/29 14:43:32;;;;;;;16.63;9.55;;;;;;;;;;4989578;28;20026;-76
2023/03/29 14:46:06;;;;;;;14.90;10.75;;;;;;;;;;4986653;28;20403;-75
2023/03/29 14:48:33;;;;;;;13.82;9.05;;;;;;;;;;4988792;28;20026;-75